Time;durP1;ratioP1;P1;durP2;ratioP2;P2;SDS_P1;SDS_P2;PMS_P1;PMS_P2;Temp;Humidity;BMP_temperature;BMP_pressure;BME280_temperature;BME280_humidity;BME280_pressure;Samples;Min_cycle;Max_cycle;Signal;HPM_P1;HPM_P2
2022/05/16 00:01:08;;;;;;;3.50;2.70;;;18.20;99.90;;;;;;5050564;28;20244;-84
2022/05/16 00:03:34;;;;;;;4.10;2.90;;;18.30;99.90;;;;;;5050798;28;20501;-85
2022/05/16 00:06:00;;;;;;;4.23;2.77;;;18.30;99.90;;;;;;5050657;28;20871;-85
2022/05/16 00:08:25;;;;;;;4.23;3.10;;;18.40;99.90;;;;;;5051935;28;20453;-85
2022/05/16 00:10:52;;;;;;;5.30;2.77;;;18.40;99.90;;;;;;5049969;28;20187;-85
2022/05/16 00:13:17;;;;;;;3.50;2.50;;;18.40;99.90;;;;;;5050620;28;20286;-85
2022/05/16 00:15:43;;;;;;;4.70;2.93;;;18.40;99.90;;;;;;5051519;28;20498;-86
2022/05/16 00:18:09;;;;;;;4.20;2.63;;;18.50;99.90;;;;;;5051851;28;20759;-85
2022/05/16 00:20:34;;;;;;;7.20;2.90;;;18.50;99.90;;;;;;5050176;28;20559;-86
2022/05/16 00:23:00;;;;;;;4.00;2.77;;;18.40;99.90;;;;;;5050602;28;20185;-85
2022/05/16 00:25:26;;;;;;;5.17;3.00;;;18.40;99.90;;;;;;5050278;28;20179;-85
2022/05/16 00:27:51;;;;;;;4.70;2.70;;;18.30;99.90;;;;;;5051663;28;20199;-85
2022/05/16 00:30:19;;;;;;;4.17;2.50;;;18.30;99.90;;;;;;5050170;28;20180;-85
2022/05/16 00:32:48;;;;;;;3.97;2.63;;;18.20;99.90;;;;;;5051462;28;20199;-85
2022/05/16 00:35:15;;;;;;;5.83;2.90;;;18.20;99.90;;;;;;5051614;28;20410;-85
2022/05/16 00:37:40;;;;;;;3.33;2.70;;;18.10;99.90;;;;;;5050142;28;20976;-85
2022/05/16 00:40:08;;;;;;;4.20;2.70;;;18.00;99.90;;;;;;5050273;28;20505;-85
2022/05/16 00:42:34;;;;;;;4.83;2.17;;;18.00;99.90;;;;;;5050108;28;20180;-87
2022/05/16 00:44:59;;;;;;;4.10;2.77;;;18.00;99.90;;;;;;5050253;28;20464;-85
2022/05/16 00:47:25;;;;;;;3.80;2.60;;;17.90;99.90;;;;;;5051223;28;20612;-86
2022/05/16 00:49:53;;;;;;;4.30;2.83;;;17.90;99.90;;;;;;5051603;28;20256;-86
2022/05/16 00:52:20;;;;;;;4.20;2.57;;;17.80;99.90;;;;;;5049827;28;20245;-85
2022/05/16 00:55:10;;;;;;;4.53;3.07;;;17.70;99.90;;;;;;5050299;28;20418;-85
2022/05/16 00:57:39;;;;;;;5.40;2.67;;;17.70;99.90;;;;;;5049285;28;20438;-86
2022/05/16 01:00:13;;;;;;;4.23;2.63;;;17.60;99.90;;;;;;5049857;28;20422;-85
2022/05/16 01:05:27;;;;;;;3.90;3.03;;;17.50;99.90;;;;;;5051582;28;20472;-84
2022/05/16 01:07:58;;;;;;;4.23;2.80;;;17.50;99.90;;;;;;5051388;28;20438;-85
2022/05/16 01:10:24;;;;;;;4.00;2.57;;;17.50;99.90;;;;;;5049913;28;20590;-85
2022/05/16 01:12:52;;;;;;;3.93;3.00;;;17.50;99.90;;;;;;5050005;28;20464;-85
2022/05/16 01:15:23;;;;;;;4.27;3.00;;;17.50;99.90;;;;;;5049722;28;20180;-85
2022/05/16 01:17:49;;;;;;;9.00;3.40;;;17.40;99.90;;;;;;5050010;28;20441;-85
2022/05/16 01:20:15;;;;;;;3.60;2.47;;;17.40;99.90;;;;;;5049601;28;20798;-85
2022/05/16 01:22:46;;;;;;;5.47;4.07;;;17.40;99.90;;;;;;5053112;28;20175;-85
2022/05/16 01:25:16;;;;;;;4.30;3.13;;;17.40;99.90;;;;;;5053529;28;20186;-85
2022/05/16 01:27:45;;;;;;;4.50;2.70;;;17.30;99.90;;;;;;5053505;28;20481;-86
2022/05/16 01:30:12;;;;;;;3.73;3.03;;;17.30;99.90;;;;;;5052954;28;20519;-85
2022/05/16 01:32:38;;;;;;;4.10;3.17;;;17.30;99.90;;;;;;5053431;28;20418;-85
2022/05/16 01:35:04;;;;;;;5.13;3.57;;;17.30;99.90;;;;;;5053128;28;21159;-85
2022/05/16 01:40:14;;;;;;;4.67;3.03;;;17.20;99.90;;;;;;5054550;28;20398;-85
2022/05/16 01:42:39;;;;;;;5.13;3.07;;;17.10;99.90;;;;;;5053174;28;20426;-85
2022/05/16 01:45:06;;;;;;;3.87;3.00;;;17.10;99.90;;;;;;5054496;28;20179;-85
2022/05/16 01:47:33;;;;;;;4.83;2.93;;;17.00;99.90;;;;;;5052790;28;20286;-86
2022/05/16 01:49:59;;;;;;;4.57;3.00;;;17.00;99.90;;;;;;5053219;28;20468;-85
2022/05/16 01:52:25;;;;;;;4.10;2.93;;;17.00;99.90;;;;;;5053943;28;20517;-85
2022/05/16 01:54:50;;;;;;;4.70;2.97;;;17.00;99.90;;;;;;5054445;28;20489;-84
2022/05/16 01:57:16;;;;;;;3.50;2.63;;;17.10;99.90;;;;;;5052737;28;20204;-85
2022/05/16 01:59:42;;;;;;;7.10;3.57;;;17.10;99.90;;;;;;5054245;28;20172;-85
2022/05/16 02:02:07;;;;;;;4.20;2.97;;;17.00;99.90;;;;;;5052557;28;20171;-85
2022/05/16 02:04:33;;;;;;;4.03;2.90;;;17.10;99.90;;;;;;5052823;28;20232;-85
2022/05/16 02:06:58;;;;;;;4.83;3.10;;;17.00;99.90;;;;;;5052688;28;20270;-85
2022/05/16 02:09:24;;;;;;;4.37;2.90;;;17.00;99.90;;;;;;5052694;28;20187;-84
2022/05/16 02:11:50;;;;;;;5.13;3.40;;;17.00;99.90;;;;;;5052822;28;20183;-85
2022/05/16 02:14:16;;;;;;;4.77;3.13;;;17.00;99.90;;;;;;5052403;28;20570;-84
2022/05/16 02:16:41;;;;;;;4.40;3.20;;;16.90;99.90;;;;;;5053844;28;20258;-85
2022/05/16 02:19:07;;;;;;;4.60;3.10;;;17.00;99.90;;;;;;5052404;28;20191;-85
2022/05/16 02:27:01;;;;;;;5.83;3.27;;;16.80;99.90;;;;;;5053987;28;20437;-85
2022/05/16 02:29:26;;;;;;;11.63;3.63;;;16.80;99.90;;;;;;5052296;28;20430;-85
2022/05/16 02:31:52;;;;;;;4.97;3.67;;;16.80;99.90;;;;;;5053416;28;20187;-85
2022/05/16 02:34:18;;;;;;;5.13;3.60;;;16.70;99.90;;;;;;5052030;28;20265;-85
2022/05/16 02:36:44;;;;;;;4.20;3.27;;;16.70;99.90;;;;;;5053071;28;20199;-84
2022/05/16 02:39:10;;;;;;;4.27;3.37;;;16.70;99.90;;;;;;5051971;28;20188;-85
2022/05/16 02:41:36;;;;;;;4.90;2.83;;;16.70;99.90;;;;;;5094141;22;20198;-83
2022/05/16 02:44:02;;;;;;;5.57;4.20;;;16.70;99.90;;;;;;5048207;28;20450;-81
2022/05/16 02:46:28;;;;;;;3.80;3.10;;;16.60;99.90;;;;;;5036004;28;20176;-82
2022/05/16 02:48:53;;;;;;;8.43;3.77;;;16.60;99.90;;;;;;5037353;28;20437;-82
2022/05/16 02:51:19;;;;;;;5.60;3.83;;;16.50;99.90;;;;;;5035382;28;20233;-82
2022/05/16 02:53:44;;;;;;;5.27;3.40;;;16.40;99.90;;;;;;5044880;28;20595;-82
2022/05/16 02:56:10;;;;;;;6.63;3.50;;;16.50;99.90;;;;;;5055068;28;20198;-83
2022/05/16 02:58:35;;;;;;;4.80;3.30;;;16.50;99.90;;;;;;5056179;28;20186;-82
2022/05/16 03:01:01;;;;;;;4.10;3.03;;;16.50;99.90;;;;;;5054272;28;20226;-82
2022/05/16 03:03:27;;;;;;;9.30;3.43;;;16.60;99.90;;;;;;5055925;28;20275;-82
2022/05/16 03:05:52;;;;;;;5.03;3.40;;;16.60;99.90;;;;;;5053889;28;20570;-82
2022/05/16 03:08:18;;;;;;;6.03;3.50;;;16.70;99.90;;;;;;5056772;28;20658;-82
2022/05/16 03:10:43;;;;;;;4.10;3.20;;;16.70;99.90;;;;;;5054360;28;20187;-82
2022/05/16 03:13:09;;;;;;;5.40;3.63;;;16.70;99.90;;;;;;5053753;28;20303;-82
2022/05/16 03:15:34;;;;;;;5.73;3.50;;;16.80;99.90;;;;;;5053304;28;20214;-82
2022/05/16 03:18:00;;;;;;;5.47;3.47;;;16.80;99.90;;;;;;5053399;28;20267;-81
2022/05/16 03:20:26;;;;;;;5.73;3.30;;;16.90;99.90;;;;;;5055644;28;20226;-82
2022/05/16 03:22:51;;;;;;;6.20;3.70;;;16.90;99.90;;;;;;5053342;28;20207;-82
2022/05/16 03:25:17;;;;;;;5.90;3.80;;;16.90;99.90;;;;;;5052651;28;20561;-82
2022/05/16 03:27:42;;;;;;;4.60;3.50;;;17.00;99.90;;;;;;5054365;28;20180;-82
2022/05/16 03:30:09;;;;;;;5.37;3.03;;;17.00;99.90;;;;;;5052563;28;20179;-82
2022/05/16 03:32:35;;;;;;;5.27;3.33;;;16.90;99.90;;;;;;5054073;28;20203;-82
2022/05/16 03:35:01;;;;;;;4.30;3.37;;;17.00;99.90;;;;;;5052506;28;20433;-82
2022/05/16 03:37:27;;;;;;;5.70;3.10;;;17.00;99.90;;;;;;5052657;28;20419;-82
2022/05/16 03:42:36;;;;;;;4.23;3.63;;;17.00;99.90;;;;;;5053768;28;20635;-82
2022/05/16 03:45:04;;;;;;;3.70;3.23;;;17.00;99.90;;;;;;5051478;28;20454;-82
2022/05/16 03:47:30;;;;;;;5.67;3.70;;;17.00;99.90;;;;;;5054025;28;20176;-81
2022/05/16 03:49:55;;;;;;;4.30;3.17;;;17.00;99.90;;;;;;5052416;28;20421;-81
2022/05/16 03:52:21;;;;;;;4.90;3.40;;;17.10;99.90;;;;;;5052427;28;20200;-82
2022/05/16 03:54:46;;;;;;;6.20;3.57;;;17.20;99.90;;;;;;5053800;28;20297;-82
2022/05/16 03:57:12;;;;;;;5.03;3.07;;;17.30;99.90;;;;;;5051920;28;20179;-81
2022/05/16 03:59:38;;;;;;;6.63;3.40;;;17.30;99.90;;;;;;5052481;28;20551;-82
2022/05/16 04:02:05;;;;;;;5.37;3.33;;;17.40;99.90;;;;;;5051629;28;20245;-82
2022/05/16 04:04:32;;;;;;;5.40;3.40;;;17.50;99.90;;;;;;5051944;28;20691;-81
2022/05/16 04:06:58;;;;;;;4.13;3.30;;;17.50;99.90;;;;;;5051526;28;20457;-82
2022/05/16 04:09:23;;;;;;;8.30;3.93;;;17.50;99.90;;;;;;5051485;28;20468;-82
2022/05/16 04:11:49;;;;;;;5.50;3.67;;;17.50;99.90;;;;;;5051545;28;20210;-82
2022/05/16 04:14:14;;;;;;;7.83;3.70;;;17.50;99.90;;;;;;5051415;28;20207;-81
2022/05/16 04:16:40;;;;;;;7.30;3.47;;;17.60;99.90;;;;;;5050829;28;20270;-82
2022/05/16 04:19:07;;;;;;;5.83;3.20;;;17.70;99.90;;;;;;5050738;28;20635;-81
2022/05/16 04:21:34;;;;;;;6.80;4.30;;;17.70;99.90;;;;;;5050300;28;20606;-82
2022/05/16 04:24:01;;;;;;;4.50;3.23;;;17.70;99.90;;;;;;5050642;28;20418;-81
2022/05/16 04:26:27;;;;;;;6.33;3.30;;;17.70;99.90;;;;;;5050766;28;20480;-81
2022/05/16 04:28:53;;;;;;;7.10;4.33;;;17.80;99.90;;;;;;5050772;28;20422;-81
2022/05/16 04:31:18;;;;;;;4.13;2.87;;;17.80;99.90;;;;;;5051462;28;20425;-81
2022/05/16 04:33:44;;;;;;;5.57;3.30;;;17.90;99.90;;;;;;5050650;28;20227;-82
2022/05/16 04:36:09;;;;;;;5.67;3.70;;;18.00;99.90;;;;;;5051655;28;20172;-81
2022/05/16 04:38:35;;;;;;;4.40;3.07;;;18.00;99.90;;;;;;5050538;28;20267;-81
2022/05/16 04:43:45;;;;;;;4.67;3.27;;;18.20;99.90;;;;;;5051659;28;20302;-81
2022/05/16 04:46:11;;;;;;;4.40;2.90;;;18.20;99.90;;;;;;5050296;28;20472;-82
2022/05/16 04:48:36;;;;;;;4.30;3.40;;;18.30;99.90;;;;;;5050506;28;20422;-82
2022/05/16 04:51:03;;;;;;;6.30;3.03;;;18.40;99.90;;;;;;5049914;28;20659;-82
2022/05/16 04:53:28;;;;;;;4.13;2.53;;;18.50;99.90;;;;;;5050448;28;20219;-82
2022/05/16 04:55:54;;;;;;;5.03;4.07;;;18.50;99.90;;;;;;5052174;28;20430;-81
2022/05/16 04:58:21;;;;;;;4.03;3.20;;;18.60;99.90;;;;;;5054322;28;20179;-81
2022/05/16 05:00:47;;;;;;;4.63;3.50;;;18.70;99.90;;;;;;5055406;28;20212;-81
2022/05/16 05:03:12;;;;;;;3.90;3.00;;;18.80;99.90;;;;;;5054164;28;20546;-81
2022/05/16 05:05:38;;;;;;;4.63;3.20;;;18.90;99.90;;;;;;5054097;28;20254;-81
2022/05/16 05:08:04;;;;;;;5.73;3.37;;;19.00;99.90;;;;;;5054112;28;20214;-81
2022/05/16 05:16:22;;;;;;;5.63;3.53;;;19.20;99.90;;;;;;5055263;28;20401;-81
2022/05/16 05:18:47;;;;;;;4.97;3.30;;;19.30;99.90;;;;;;5054016;28;20406;-81
2022/05/16 05:21:13;;;;;;;4.57;3.03;;;19.30;99.90;;;;;;5053785;28;20639;-81
2022/05/16 05:23:40;;;;;;;6.00;2.97;;;19.30;99.90;;;;;;5053760;28;20290;-81
2022/05/16 05:26:07;;;;;;;3.43;2.67;;;19.30;99.90;;;;;;5053575;28;20441;-81
2022/05/16 05:28:34;;;;;;;4.73;3.40;;;19.30;99.90;;;;;;5053927;28;20428;-81
2022/05/16 05:31:00;;;;;;;7.97;3.10;;;19.40;99.90;;;;;;5053464;28;20422;-81
2022/05/16 05:33:26;;;;;;;4.67;3.20;;;19.30;99.90;;;;;;5053679;28;20496;-82
2022/05/16 05:35:52;;;;;;;5.13;3.13;;;19.40;99.90;;;;;;5054772;28;20183;-81
2022/05/16 05:38:18;;;;;;;5.20;3.53;;;19.40;99.90;;;;;;5054872;28;20483;-81
2022/05/16 05:40:44;;;;;;;5.23;3.30;;;19.50;99.90;;;;;;5053182;28;20570;-81
2022/05/16 05:43:10;;;;;;;5.70;2.97;;;19.50;99.90;;;;;;5052916;28;20833;-82
2022/05/16 05:45:36;;;;;;;3.93;3.20;;;19.60;99.90;;;;;;5053297;28;20414;-82
2022/05/16 05:48:03;;;;;;;4.00;2.80;;;19.60;99.90;;;;;;5053419;28;20274;-82
2022/05/16 05:50:29;;;;;;;5.73;3.40;;;19.60;99.90;;;;;;5053256;28;20802;-81
2022/05/16 05:52:54;;;;;;;5.40;3.30;;;19.70;99.90;;;;;;5053081;28;20457;-81
2022/05/16 05:55:20;;;;;;;5.50;3.70;;;19.70;99.90;;;;;;5053303;28;20228;-81
2022/05/16 05:57:46;;;;;;;6.50;3.40;;;19.80;99.90;;;;;;5052946;28;20655;-82
2022/05/16 06:00:13;;;;;;;4.23;3.00;;;19.80;99.90;;;;;;5053121;28;20797;-82
2022/05/16 06:02:40;;;;;;;5.20;3.33;;;19.80;99.90;;;;;;5054264;28;20200;-82
2022/05/16 06:05:18;;;;;;;5.03;2.70;;;19.80;99.90;;;;;;5053023;28;20419;-81
2022/05/16 06:07:44;;;;;;;5.20;3.13;;;19.90;99.90;;;;;;5052206;28;20411;-82
2022/05/16 06:10:10;;;;;;;9.43;3.27;;;19.90;99.90;;;;;;5052980;28;20504;-83
2022/05/16 06:12:36;;;;;;;5.00;3.03;;;19.90;99.90;;;;;;5052936;28;20196;-83
2022/05/16 06:15:03;;;;;;;3.43;2.80;;;20.00;99.90;;;;;;5053042;28;20534;-82
2022/05/16 06:17:29;;;;;;;4.00;2.87;;;20.00;99.90;;;;;;5053082;28;20279;-83
2022/05/16 06:19:56;;;;;;;4.70;2.80;;;20.00;99.90;;;;;;5052703;28;20446;-81
2022/05/16 06:22:23;;;;;;;5.00;3.30;;;20.00;99.90;;;;;;5052410;28;20196;-82
2022/05/16 06:27:32;;;;;;;4.60;3.33;;;19.90;99.90;;;;;;5061850;28;20460;-83
2022/05/16 06:29:59;;;;;;;9.97;3.30;;;20.00;99.90;;;;;;5058640;28;20928;-83
2022/05/16 06:32:24;;;;;;;5.23;3.00;;;19.90;99.90;;;;;;5061635;28;20211;-82
2022/05/16 06:34:55;;;;;;;9.53;3.67;;;19.90;99.90;;;;;;5064062;28;20458;-82
2022/05/16 06:37:20;;;;;;;6.20;3.17;;;19.90;99.90;;;;;;5064031;28;20172;-82
2022/05/16 06:39:46;;;;;;;4.70;3.17;;;19.80;99.90;;;;;;5062734;28;20424;-84
2022/05/16 06:42:12;;;;;;;3.87;2.83;;;19.90;99.90;;;;;;5059164;28;20678;-83
2022/05/16 06:44:38;;;;;;;3.70;3.00;;;19.80;99.90;;;;;;5059458;28;20194;-83
2022/05/16 06:47:05;;;;;;;6.90;3.53;;;19.80;99.90;;;;;;5060429;28;20764;-83
2022/05/16 06:49:31;;;;;;;4.43;3.00;;;19.80;99.90;;;;;;5058777;28;20183;-83
2022/05/16 06:51:56;;;;;;;5.63;3.23;;;19.90;99.90;;;;;;5059873;28;20572;-83
2022/05/16 06:54:22;;;;;;;8.73;3.67;;;19.90;99.90;;;;;;5059278;28;20461;-83
2022/05/16 06:56:48;;;;;;;6.60;3.63;;;19.90;99.90;;;;;;5057481;28;20184;-83
2022/05/16 06:59:13;;;;;;;3.73;2.70;;;20.00;99.90;;;;;;5053736;28;20270;-84
2022/05/16 07:01:39;;;;;;;7.30;3.30;;;20.00;99.90;;;;;;5036494;28;20235;-83
2022/05/16 07:04:04;;;;;;;4.90;3.93;;;20.00;99.90;;;;;;5035397;28;20643;-83
2022/05/16 07:06:31;;;;;;;4.90;3.57;;;20.00;99.90;;;;;;5033227;28;20181;-82
2022/05/16 07:08:56;;;;;;;4.60;4.07;;;19.90;99.90;;;;;;5051531;28;20188;-82
2022/05/16 07:11:22;;;;;;;6.80;3.50;;;20.00;99.90;;;;;;5051768;28;20449;-82
2022/05/16 07:13:47;;;;;;;4.70;3.40;;;19.90;99.90;;;;;;5051652;28;20250;-81
2022/05/16 07:16:13;;;;;;;6.60;3.20;;;19.90;99.90;;;;;;5051395;28;20184;-82
2022/05/16 07:18:38;;;;;;;6.97;4.07;;;19.80;99.90;;;;;;5051388;28;20175;-82
2022/05/16 07:21:05;;;;;;;5.57;3.53;;;19.70;99.90;;;;;;5051678;28;20176;-82
2022/05/16 07:23:30;;;;;;;5.07;3.80;;;19.70;99.90;;;;;;5051359;28;20211;-81
2022/05/16 07:28:40;;;;;;;5.93;3.77;;;19.60;99.90;;;;;;5032975;28;20267;-82
2022/05/16 07:31:06;;;;;;;3.83;3.03;;;19.60;99.90;;;;;;5031445;28;20451;-82
2022/05/16 07:33:34;;;;;;;5.07;3.60;;;19.50;99.90;;;;;;5031372;28;20239;-82
2022/05/16 07:35:59;;;;;;;6.23;4.13;;;19.50;99.90;;;;;;5032536;28;20415;-82
2022/05/16 07:38:26;;;;;;;4.70;3.63;;;19.60;99.90;;;;;;5032878;28;20514;-82
2022/05/16 07:40:52;;;;;;;7.53;3.77;;;19.70;99.90;;;;;;5032593;28;20176;-82
2022/05/16 07:43:18;;;;;;;12.70;3.90;;;19.80;99.90;;;;;;5047715;28;20457;-82
2022/05/16 07:45:45;;;;;;;4.53;3.50;;;19.80;99.90;;;;;;5055028;28;20472;-81
2022/05/16 07:48:12;;;;;;;6.27;3.80;;;19.90;99.90;;;;;;5049480;28;20538;-80
2022/05/16 07:50:38;;;;;;;8.03;3.83;;;20.00;99.90;;;;;;5048287;28;20504;-84
2022/05/16 07:53:11;;;;;;;4.33;3.40;;;20.10;99.90;;;;;;5053146;28;20478;-84
2022/05/16 07:55:38;;;;;;;5.50;3.60;;;20.30;99.90;;;;;;5052737;28;20411;-83
2022/05/16 07:58:03;;;;;;;4.93;3.50;;;20.40;99.90;;;;;;5052870;28;20897;-84
2022/05/16 08:00:29;;;;;;;4.70;3.47;;;20.40;99.90;;;;;;5052659;28;20422;-84
2022/05/16 08:02:55;;;;;;;5.13;4.47;;;20.50;99.90;;;;;;5052780;28;20207;-84
2022/05/16 08:05:22;;;;;;;5.03;3.50;;;20.60;99.90;;;;;;5052217;28;20187;-83
2022/05/16 08:10:33;;;;;;;5.00;3.80;;;21.00;99.90;;;;;;5053802;28;20401;-84
2022/05/16 08:13:02;;;;;;;4.43;3.20;;;21.10;99.90;;;;;;5052159;28;20608;-84
2022/05/16 08:15:29;;;;;;;5.03;3.60;;;21.20;99.90;;;;;;5052150;28;20430;-86
2022/05/16 08:17:55;;;;;;;5.77;3.97;;;21.20;99.90;;;;;;5051984;28;20418;-84
2022/05/16 08:20:21;;;;;;;6.17;3.90;;;21.20;99.90;;;;;;5052048;28;20802;-84
2022/05/16 08:22:47;;;;;;;6.43;3.90;;;21.20;99.90;;;;;;5053608;28;20207;-84
2022/05/16 08:25:14;;;;;;;4.60;3.60;;;21.20;99.90;;;;;;5052201;28;20180;-84
2022/05/16 08:27:40;;;;;;;6.30;3.67;;;21.30;99.90;;;;;;5052385;28;20418;-85
2022/05/16 08:30:07;;;;;;;5.83;3.73;;;21.30;99.90;;;;;;5053093;28;20418;-84
2022/05/16 08:32:32;;;;;;;4.73;3.60;;;21.30;99.90;;;;;;5056982;28;20568;-84
2022/05/16 08:35:02;;;;;;;5.83;3.60;;;21.50;99.90;;;;;;5057526;28;20933;-83
2022/05/16 08:40:12;;;;;;;8.13;3.53;;;21.80;99.90;;;;;;5057792;28;20420;-83
2022/05/16 08:42:50;;;;;;;6.20;3.30;;;22.00;99.90;;;;;;5055606;28;20453;-83
2022/05/16 08:45:27;;;;;;;5.87;3.83;;;22.30;99.90;;;;;;5072983;23;20490;-82
2022/05/16 08:47:52;;;;;;;4.57;3.27;;;22.40;99.90;;;;;;5037489;28;20443;-81
2022/05/16 08:50:52;;;;;;;4.90;3.40;;;22.90;99.90;;;;;;5037514;28;20410;-82
2022/05/16 08:53:31;;;;;;;4.50;3.47;;;23.50;99.90;;;;;;5037080;28;20211;-82
2022/05/16 08:56:01;;;;;;;3.97;3.20;;;23.80;99.90;;;;;;5037301;28;20426;-81
2022/05/16 08:58:45;;;;;;;6.20;3.47;;;24.30;99.90;;;;;;5036778;28;20977;-81
2022/05/16 09:01:16;;;;;;;4.90;3.50;;;24.70;99.90;;;;;;5035794;28;20418;-79
2022/05/16 09:03:50;;;;;;;6.83;3.67;;;26.40;99.90;;;;;;5036568;28;20925;-82
2022/05/16 09:06:25;;;;;;;4.53;3.33;;;28.80;99.90;;;;;;5038450;28;20410;-82
2022/05/16 09:08:57;;;;;;;5.43;2.73;;;30.80;99.90;;;;;;5037663;28;20937;-81
2022/05/16 09:12:03;;;;;;;4.10;3.27;;;32.20;92.70;;;;;;5038074;28;20427;-82
2022/05/16 09:14:35;;;;;;;4.10;2.87;;;32.90;85.90;;;;;;5037488;28;20470;-81
2022/05/16 09:17:07;;;;;;;4.03;2.80;;;34.60;76.10;;;;;;5037611;28;20916;-81
2022/05/16 09:19:38;;;;;;;5.43;2.90;;;35.20;69.30;;;;;;5037393;28;20593;-82
2022/05/16 09:22:32;;;;;;;6.33;2.90;;;35.50;62.20;;;;;;5036769;28;20501;-81
2022/05/16 09:25:09;;;;;;;3.67;2.80;;;36.40;59.90;;;;;;5007413;28;20870;-81
2022/05/16 09:30:26;;;;;;;4.27;3.33;;;38.30;51.80;;;;;;5037701;28;20449;-81
2022/05/16 09:33:07;;;;;;;4.80;3.20;;;39.00;50.20;;;;;;5036017;28;20426;-81
2022/05/16 09:36:06;;;;;;;4.83;3.03;;;39.10;48.80;;;;;;5036861;28;20419;-83
2022/05/16 09:38:32;;;;;;;3.83;2.43;;;39.60;46.60;;;;;;5036414;28;20476;-81
2022/05/16 09:41:01;;;;;;;3.53;2.97;;;40.00;45.00;;;;;;5036252;28;20426;-81
2022/05/16 09:43:33;;;;;;;4.20;2.70;;;40.10;43.90;;;;;;5035397;28;20445;-83
2022/05/16 09:46:06;;;;;;;4.33;2.60;;;40.10;41.90;;;;;;5036785;28;20442;-81
2022/05/16 09:48:31;;;;;;;4.70;3.00;;;40.10;41.90;;;;;;5036576;28;20436;-82
2022/05/16 09:51:04;;;;;;;4.00;2.77;;;40.20;41.40;;;;;;5036119;28;20509;-82
2022/05/16 09:53:33;;;;;;;3.20;2.50;;;40.00;42.10;;;;;;5036203;28;20208;-82
2022/05/16 09:56:26;;;;;;;3.50;2.87;;;39.50;41.90;;;;;;5036631;28;20415;-82
2022/05/16 09:59:04;;;;;;;3.83;2.30;;;39.10;40.70;;;;;;5035889;28;20432;-82
2022/05/16 10:01:40;;;;;;;4.17;2.40;;;38.90;44.60;;;;;;5035643;28;20419;-82
2022/05/16 10:04:15;;;;;;;5.50;2.87;;;39.40;42.00;;;;;;5035203;28;20426;-81
2022/05/16 10:07:01;;;;;;;3.90;2.70;;;40.00;43.30;;;;;;5035849;28;20473;-81
2022/05/16 10:09:47;;;;;;;4.67;2.83;;;40.60;41.60;;;;;;5035933;28;20513;-82
2022/05/16 10:12:18;;;;;;;5.57;2.83;;;40.50;40.50;;;;;;5035452;28;20424;-81
2022/05/16 10:14:46;;;;;;;4.20;3.13;;;40.90;40.80;;;;;;5035042;28;20520;-83
2022/05/16 10:17:22;;;;;;;3.83;2.13;;;41.20;40.40;;;;;;5034960;28;20439;-83
2022/05/16 10:19:52;;;;;;;2.93;2.20;;;41.70;40.30;;;;;;5034696;28;20414;-82
2022/05/16 10:22:22;;;;;;;6.00;2.27;;;42.30;39.60;;;;;;5034467;28;20509;-82
2022/05/16 10:24:53;;;;;;;3.30;2.20;;;42.30;39.60;;;;;;5034602;28;20207;-83
2022/05/16 10:27:28;;;;;;;3.87;2.43;;;41.70;39.30;;;;;;5034959;28;20446;-82
2022/05/16 10:29:57;;;;;;;3.50;2.30;;;41.20;38.60;;;;;;5034545;28;20426;-81
2022/05/16 10:35:20;;;;;;;3.10;2.37;;;40.00;41.20;;;;;;5036014;28;20414;-82
2022/05/16 10:37:49;;;;;;;4.40;2.70;;;39.00;40.50;;;;;;5034014;28;20442;-81
2022/05/16 10:40:36;;;;;;;2.90;2.13;;;38.20;40.00;;;;;;5033365;28;20476;-81
2022/05/16 10:43:29;;;;;;;3.43;2.30;;;37.00;40.50;;;;;;5033845;28;20460;-81
2022/05/16 10:46:03;;;;;;;3.27;2.30;;;35.60;42.30;;;;;;5033638;28;20844;-82
2022/05/16 10:48:52;;;;;;;3.77;2.07;;;34.90;43.70;;;;;;5033496;28;20447;-81
2022/05/16 10:51:28;;;;;;;4.43;2.67;;;34.30;44.00;;;;;;5037760;28;20835;-83
2022/05/16 10:54:05;;;;;;;3.17;2.50;;;33.70;45.90;;;;;;5034710;28;20458;-81
2022/05/16 10:57:02;;;;;;;3.50;2.57;;;33.00;46.40;;;;;;5033219;28;20439;-81
2022/05/16 10:59:59;;;;;;;3.57;2.57;;;32.70;48.10;;;;;;5004062;28;20426;-81
2022/05/16 11:02:41;;;;;;;4.60;2.13;;;32.40;47.10;;;;;;5032955;28;20423;-81
2022/05/16 11:05:28;;;;;;;3.50;2.40;;;32.10;49.00;;;;;;5033046;28;20454;-81
2022/05/16 11:08:05;;;;;;;3.30;2.30;;;32.10;51.50;;;;;;5032964;28;20477;-81
2022/05/16 11:11:07;;;;;;;2.70;2.00;;;32.10;50.40;;;;;;5032780;28;20844;-81
2022/05/16 11:13:48;;;;;;;3.80;2.30;;;32.20;52.70;;;;;;5027233;28;20459;-81
2022/05/16 11:16:32;;;;;;;4.07;2.40;;;32.00;50.60;;;;;;5032579;28;20426;-81
2022/05/16 11:19:16;;;;;;;4.60;2.67;;;31.70;52.00;;;;;;5033188;28;20514;-80
2022/05/16 11:21:45;;;;;;;4.90;2.80;;;31.00;52.00;;;;;;5032592;28;20473;-80
2022/05/16 11:24:17;;;;;;;4.57;2.50;;;29.90;54.70;;;;;;5032474;28;20419;-81
2022/05/16 11:27:21;;;;;;;6.70;3.20;;;29.30;56.10;;;;;;5034557;28;20443;-82
2022/05/16 11:30:09;;;;;;;5.73;3.80;;;28.80;64.20;;;;;;4995659;28;20450;-81
2022/05/16 11:32:53;;;;;;;6.53;4.30;;;27.30;99.90;;;;;;5021175;28;20494;-79
2022/05/16 11:35:23;;;;;;;4.40;2.90;;;25.70;99.90;;;;;;5025647;28;20477;-79
2022/05/16 11:37:55;;;;;;;4.80;3.70;;;24.80;99.90;;;;;;5029530;28;20494;-78
2022/05/16 11:40:58;;;;;;;5.30;3.83;;;24.20;99.90;;;;;;5031966;28;20430;-79
2022/05/16 11:43:32;;;;;;;4.97;4.47;;;24.10;99.90;;;;;;5029273;28;20434;-78
2022/05/16 11:46:13;;;;;;;8.30;4.97;;;24.20;99.90;;;;;;5031139;28;20447;-79
2022/05/16 11:49:04;;;;;;;5.07;3.90;;;24.30;99.90;;;;;;5032938;28;20430;-79
2022/05/16 11:51:55;;;;;;;7.87;4.53;;;24.30;99.90;;;;;;5028725;28;20506;-79
2022/05/16 11:54:25;;;;;;;6.93;4.30;;;24.30;99.90;;;;;;5034142;28;20528;-79
2022/05/16 12:02:28;;;;;;;8.33;4.97;;;24.20;99.90;;;;;;5034409;28;20415;-79
2022/05/16 12:05:00;;;;;;;5.70;4.23;;;24.20;99.90;;;;;;5032884;28;20509;-80
2022/05/16 12:07:34;;;;;;;5.03;3.97;;;24.20;99.90;;;;;;5027183;28;20457;-79
2022/05/16 12:10:10;;;;;;;5.03;4.00;;;24.20;99.90;;;;;;5025571;28;20504;-79
2022/05/16 12:12:42;;;;;;;7.37;4.33;;;24.30;99.90;;;;;;5033210;28;20930;-78
2022/05/16 12:15:35;;;;;;;7.23;3.80;;;24.30;99.90;;;;;;5032340;28;20431;-80
2022/05/16 12:18:27;;;;;;;8.40;4.10;;;24.40;99.90;;;;;;5033096;28;20443;-78
2022/05/16 12:20:58;;;;;;;6.57;4.13;;;24.50;99.90;;;;;;5031897;28;20416;-79
2022/05/16 12:23:49;;;;;;;5.20;4.10;;;24.50;99.90;;;;;;5033458;28;20513;-79
2022/05/16 12:26:27;;;;;;;7.00;4.33;;;24.40;99.90;;;;;;5032731;28;20428;-77
2022/05/16 12:29:08;;;;;;;7.63;4.30;;;24.30;99.90;;;;;;5032056;28;20470;-77
2022/05/16 12:31:48;;;;;;;7.00;5.13;;;24.10;99.90;;;;;;5030046;28;20446;-78
2022/05/16 12:34:38;;;;;;;7.17;5.63;;;23.20;99.90;;;;;;5030834;28;20500;-78
2022/05/16 12:37:14;;;;;;;8.17;6.97;;;22.60;99.90;;;;;;5018626;28;20439;-79
2022/05/16 12:39:55;;;;;;;8.50;7.20;;;22.30;99.90;;;;;;5031321;28;20782;-79
2022/05/16 12:42:32;;;;;;;8.23;7.43;;;22.10;99.90;;;;;;5030576;28;20415;-79
2022/05/16 12:45:17;;;;;;;9.60;6.63;;;21.80;99.90;;;;;;5029843;28;20455;-79
2022/05/16 12:47:58;;;;;;;7.93;7.13;;;21.80;99.90;;;;;;5029895;28;20811;-79
2022/05/16 12:50:32;;;;;;;8.10;6.60;;;21.70;99.90;;;;;;5021417;28;20435;-78
2022/05/16 12:53:16;;;;;;;7.07;6.17;;;21.70;99.90;;;;;;5021009;28;20466;-78
2022/05/16 12:56:01;;;;;;;8.17;6.63;;;21.70;99.90;;;;;;5030969;28;20443;-79
2022/05/16 12:58:52;;;;;;;8.30;6.40;;;21.70;99.90;;;;;;5011710;28;20494;-77
2022/05/16 13:01:26;;;;;;;8.87;6.60;;;21.70;99.90;;;;;;5021262;28;20884;-77
2022/05/16 13:04:15;;;;;;;10.17;7.50;;;21.70;99.90;;;;;;5028331;28;20438;-77
2022/05/16 13:07:09;;;;;;;8.30;7.20;;;21.70;99.90;;;;;;5031271;28;20945;-77
2022/05/16 13:09:44;;;;;;;8.47;7.57;;;21.80;99.90;;;;;;5031065;28;20479;-76
2022/05/16 13:12:42;;;;;;;11.33;7.67;;;21.90;99.90;;;;;;5031151;28;20414;-77
2022/05/16 13:15:24;;;;;;;8.43;7.17;;;21.90;99.90;;;;;;5031168;28;20463;-77
2022/05/16 13:17:54;;;;;;;8.40;7.50;;;21.90;99.90;;;;;;5033912;28;20458;-78
2022/05/16 13:20:30;;;;;;;8.90;8.00;;;21.80;99.90;;;;;;5035429;28;20766;-77
2022/05/16 13:22:57;;;;;;;8.10;6.20;;;21.90;99.90;;;;;;5034604;28;20517;-76
2022/05/16 13:25:25;;;;;;;8.13;6.70;;;21.80;99.90;;;;;;5036191;28;20423;-77
2022/05/16 13:30:46;;;;;;;8.00;7.17;;;22.00;99.90;;;;;;5036810;28;20466;-77
2022/05/16 13:33:31;;;;;;;8.60;6.83;;;22.10;99.90;;;;;;5035609;28;20545;-77
2022/05/16 13:36:13;;;;;;;8.43;6.90;;;22.20;99.90;;;;;;5035557;28;20418;-77
2022/05/16 13:38:39;;;;;;;9.30;7.47;;;22.40;99.90;;;;;;5035941;28;20415;-78
2022/05/16 13:41:05;;;;;;;7.67;6.30;;;22.30;99.90;;;;;;5034996;28;20415;-77
2022/05/16 13:43:31;;;;;;;8.20;6.37;;;22.50;99.90;;;;;;5034778;28;20525;-77
2022/05/16 13:46:01;;;;;;;8.10;6.97;;;22.70;99.90;;;;;;5037682;28;20943;-78
2022/05/16 13:48:27;;;;;;;7.43;6.40;;;22.80;99.90;;;;;;5037485;28;20580;-78
2022/05/16 13:50:53;;;;;;;9.00;6.83;;;23.00;99.90;;;;;;5037046;28;20435;-78